Time;durP1;ratioP1;P1;durP2;ratioP2;P2;SDS_P1;SDS_P2;PMS_P1;PMS_P2;Temp;Humidity;BMP_temperature;BMP_pressure;BME280_temperature;BME280_humidity;BME280_pressure;Samples;Min_cycle;Max_cycle;Signal;HPM_P1;HPM_P2
2023/12/18 00:01:37;;;;;;;96.78;50.25;;;51.20;2227.20;;;;;;5083463;28;20047;-65
2023/12/18 00:04:03;;;;;;;18.35;11.55;;;51.20;2227.20;;;;;;5086471;28;20119;-64
2023/12/18 00:06:31;;;;;;;21.92;12.68;;;51.30;2227.20;;;;;;5069549;28;20071;-65
2023/12/18 00:08:57;;;;;;;53.35;28.40;;;51.30;2227.20;;;;;;5081433;28;20091;-64
2023/12/18 00:11:23;;;;;;;47.35;26.55;;;51.30;2227.20;;;;;;5086418;28;20032;-63
2023/12/18 00:13:49;;;;;;;35.08;22.15;;;51.30;2227.20;;;;;;5082591;28;20043;-64
2023/12/18 00:16:14;;;;;;;35.92;20.15;;;51.20;2227.20;;;;;;5075827;28;20462;-64
2023/12/18 00:18:40;;;;;;;27.15;14.63;;;26.40;2201.60;;;;;;5072766;28;20130;-64
2023/12/18 00:21:06;;;;;;;28.20;16.70;;;26.50;2201.60;;;;;;5088969;28;20086;-65
2023/12/18 00:23:31;;;;;;;32.00;18.85;;;51.20;2227.20;;;;;;5082618;28;20024;-64
2023/12/18 00:25:57;;;;;;;43.70;26.60;;;51.30;2227.20;;;;;;5089520;28;20024;-63
2023/12/18 00:28:23;;;;;;;31.05;18.67;;;51.40;2227.20;;;;;;5093058;28;20437;-62
2023/12/18 00:30:49;;;;;;;20.80;12.52;;;51.40;2227.20;;;;;;5078921;28;20036;-64
2023/12/18 00:33:14;;;;;;;19.58;12.07;;;51.50;2227.20;;;;;;5081268;28;20059;-64
2023/12/18 00:35:40;;;;;;;22.40;14.18;;;51.50;2227.20;;;;;;5072153;28;20028;-64
2023/12/18 00:38:06;;;;;;;28.85;17.85;;;51.50;2227.20;;;;;;5082983;28;20020;-63
2023/12/18 00:40:32;;;;;;;49.90;27.40;;;51.60;2227.20;;;;;;5088142;28;20032;-63
2023/12/18 00:42:58;;;;;;;61.33;35.20;;;51.60;2227.20;;;;;;5078479;28;20086;-63
2023/12/18 00:45:24;;;;;;;117.55;71.80;;;51.50;2227.20;;;;;;5060609;28;20104;-63
2023/12/18 00:47:49;;;;;;;80.30;50.90;;;51.60;2227.20;;;;;;5072189;28;20119;-64
2023/12/18 00:50:15;;;;;;;35.25;22.02;;;51.60;2227.20;;;;;;5088737;28;20380;-64
2023/12/18 00:52:42;;;;;;;50.47;26.23;;;51.60;2227.20;;;;;;5080502;28;20020;-64
2023/12/18 00:55:08;;;;;;;48.25;25.65;;;51.50;2227.20;;;;;;5071958;28;20024;-63
2023/12/18 00:57:34;;;;;;;45.15;24.10;;;51.60;2227.20;;;;;;5071712;28;20421;-65
2023/12/18 01:00:00;;;;;;;44.22;27.45;;;51.40;2227.20;;;;;;5081370;28;20089;-63
2023/12/18 01:02:25;;;;;;;30.75;19.58;;;51.20;2227.20;;;;;;5080112;28;20135;-64
2023/12/18 01:04:51;;;;;;;28.85;16.77;;;26.50;2201.60;;;;;;5081071;28;20051;-63
2023/12/18 01:07:17;;;;;;;81.82;44.40;;;51.20;2227.20;;;;;;5078102;28;20031;-63
2023/12/18 01:09:43;;;;;;;47.47;23.27;;;51.30;2227.20;;;;;;5082716;28;20024;-64
2023/12/18 01:12:09;;;;;;;55.42;30.90;;;51.30;2227.20;;;;;;5085258;28;20016;-64
2023/12/18 01:14:35;;;;;;;32.05;17.90;;;51.40;2227.20;;;;;;5064834;28;20035;-63
2023/12/18 01:17:01;;;;;;;27.83;15.38;;;51.30;2227.20;;;;;;5079432;28;20111;-63
2023/12/18 01:19:27;;;;;;;19.20;10.70;;;51.30;2227.20;;;;;;5084865;28;20020;-64
2023/12/18 01:21:52;;;;;;;20.02;9.48;;;51.30;2227.20;;;;;;5071656;28;20020;-64
2023/12/18 01:24:18;;;;;;;12.63;8.10;;;51.30;2227.20;;;;;;5084739;28;20463;-63
2023/12/18 01:26:44;;;;;;;10.05;6.18;;;51.30;2227.20;;;;;;5071321;28;20016;-64
2023/12/18 01:29:10;;;;;;;20.00;10.32;;;51.30;2227.20;;;;;;5084960;28;20370;-63
2023/12/18 01:31:35;;;;;;;16.17;9.30;;;51.30;2227.20;;;;;;5070916;28;20478;-64
2023/12/18 01:34:01;;;;;;;20.50;11.70;;;51.30;2227.20;;;;;;5075367;28;20032;-64
2023/12/18 01:36:27;;;;;;;47.90;25.77;;;51.30;2227.20;;;;;;5080776;28;20024;-64
2023/12/18 01:38:53;;;;;;;24.63;12.40;;;51.20;2227.20;;;;;;5070966;28;20025;-64
2023/12/18 01:41:19;;;;;;;43.47;25.33;;;51.30;2227.20;;;;;;5071439;28;20031;-63
2023/12/18 01:43:45;;;;;;;20.10;10.65;;;51.20;2227.20;;;;;;5087662;28;20027;-65
2023/12/18 01:46:18;;;;;;;11.13;7.38;;;51.30;2227.20;;;;;;5061873;28;20013;-66
2023/12/18 01:48:45;;;;;;;12.40;7.10;;;51.40;2227.20;;;;;;5073866;28;20059;-65
2023/12/18 01:51:12;;;;;;;12.95;7.30;;;51.50;2227.20;;;;;;5079008;28;20040;-63
2023/12/18 01:53:43;;;;;;;12.80;7.47;;;51.50;2227.20;;;;;;5089256;28;20047;-64
2023/12/18 01:56:12;;;;;;;16.05;9.50;;;51.50;2227.20;;;;;;5091242;28;20028;-63
2023/12/18 01:58:39;;;;;;;14.80;9.55;;;51.40;2227.20;;;;;;5076887;28;20012;-62
2023/12/18 02:01:04;;;;;;;17.75;9.65;;;51.40;2227.20;;;;;;5077967;28;20031;-63
2023/12/18 02:03:30;;;;;;;24.83;11.57;;;51.30;2227.20;;;;;;5083709;28;20020;-65
2023/12/18 02:05:59;;;;;;;16.00;8.43;;;51.40;2227.20;;;;;;5083521;28;20036;-64
2023/12/18 02:08:25;;;;;;;19.92;11.35;;;51.40;2227.20;;;;;;5070178;28;20013;-64
2023/12/18 02:10:55;;;;;;;45.05;22.60;;;51.30;2227.20;;;;;;5070549;28;20036;-63
2023/12/18 02:13:22;;;;;;;36.58;21.77;;;51.30;2227.20;;;;;;5064226;28;20700;-64
2023/12/18 02:15:47;;;;;;;26.48;16.45;;;51.40;2227.20;;;;;;5090170;28;20478;-64
2023/12/18 02:18:13;;;;;;;30.98;18.20;;;51.30;2227.20;;;;;;5070294;28;20042;-63
2023/12/18 02:20:42;;;;;;;32.92;17.90;;;51.20;2227.20;;;;;;5084245;28;20024;-64
2023/12/18 02:23:09;;;;;;;29.58;18.50;;;51.20;2227.20;;;;;;5056468;28;20025;-62
2023/12/18 02:25:35;;;;;;;30.65;17.85;;;26.50;2201.60;;;;;;5078432;28;20024;-63
2023/12/18 02:28:02;;;;;;;18.20;11.63;;;26.40;2201.60;;;;;;5090692;28;20743;-64
2023/12/18 02:30:28;;;;;;;10.48;7.28;;;26.30;2201.60;;;;;;5088992;28;20413;-62
2023/12/18 02:32:54;;;;;;;12.70;7.28;;;26.20;2201.60;;;;;;5078292;28;20021;-63
2023/12/18 02:35:20;;;;;;;14.13;8.57;;;26.30;2201.60;;;;;;5088999;28;20028;-63
2023/12/18 02:37:45;;;;;;;15.95;9.25;;;26.30;2201.60;;;;;;5077688;28;20024;-64
2023/12/18 02:40:11;;;;;;;14.25;8.95;;;26.30;2201.60;;;;;;5076744;28;20724;-63
2023/12/18 02:42:37;;;;;;;17.35;11.27;;;26.30;2201.60;;;;;;5082818;28;20378;-62
2023/12/18 02:45:03;;;;;;;25.27;14.80;;;26.30;2201.60;;;;;;5069631;28;20409;-63
2023/12/18 02:47:29;;;;;;;27.52;15.35;;;26.40;2201.60;;;;;;5078225;28;20524;-63
2023/12/18 02:49:55;;;;;;;26.10;14.82;;;26.40;2201.60;;;;;;5075902;28;20027;-63
2023/12/18 02:52:21;;;;;;;17.58;10.30;;;26.50;2201.60;;;;;;5078435;28;20477;-63
2023/12/18 02:54:47;;;;;;;17.25;10.27;;;26.50;2201.60;;;;;;5073039;28;20356;-64
2023/12/18 02:57:12;;;;;;;14.48;7.68;;;26.40;2201.60;;;;;;5069582;28;20028;-63
2023/12/18 02:59:38;;;;;;;17.38;10.50;;;26.40;2201.60;;;;;;5083284;28;20058;-63
2023/12/18 03:02:04;;;;;;;9.25;5.80;;;26.40;2201.60;;;;;;5069790;28;20082;-63
2023/12/18 03:04:30;;;;;;;7.28;4.40;;;26.40;2201.60;;;;;;5084199;28;20063;-63
2023/12/18 03:06:55;;;;;;;7.50;4.47;;;26.40;2201.60;;;;;;5081840;28;20028;-63
2023/12/18 03:09:21;;;;;;;6.15;3.72;;;51.20;2227.20;;;;;;5069317;28;20056;-64
2023/12/18 03:11:47;;;;;;;10.15;4.20;;;51.30;2227.20;;;;;;5069675;28;20455;-64
2023/12/18 03:14:13;;;;;;;10.27;4.95;;;51.20;2227.20;;;;;;5083579;28;20032;-62
2023/12/18 03:16:39;;;;;;;53.33;30.10;;;26.50;2201.60;;;;;;5081365;28;20470;-64
2023/12/18 03:19:05;;;;;;;23.05;14.05;;;26.50;2201.60;;;;;;5069158;28;20031;-63
2023/12/18 03:21:31;;;;;;;8.68;4.68;;;26.50;2201.60;;;;;;5069550;28;20059;-63
2023/12/18 03:23:57;;;;;;;42.08;19.33;;;26.50;2201.60;;;;;;5076266;28;20833;-64
2023/12/18 03:26:23;;;;;;;70.95;34.08;;;26.50;2201.60;;;;;;5070752;28;20375;-64
2023/12/18 03:28:49;;;;;;;82.75;40.90;;;26.50;2201.60;;;;;;5082699;28;20114;-64
2023/12/18 03:31:15;;;;;;;61.70;29.30;;;26.50;2201.60;;;;;;5068847;28;20044;-63
2023/12/18 03:33:42;;;;;;;14.07;7.63;;;51.20;2227.20;;;;;;5069077;28;20024;-63
2023/12/18 03:36:08;;;;;;;32.45;13.60;;;26.50;2201.60;;;;;;5076922;28;20028;-63
2023/12/18 03:38:34;;;;;;;110.70;44.08;;;26.40;2201.60;;;;;;5075540;28;20036;-64
2023/12/18 03:41:00;;;;;;;178.98;70.78;;;26.30;2201.60;;;;;;5089685;28;20035;-62
2023/12/18 03:43:26;;;;;;;47.67;22.23;;;26.30;2201.60;;;;;;5087931;28;20117;-64
2023/12/18 03:45:52;;;;;;;151.13;56.00;;;26.30;2201.60;;;;;;5069257;28;20033;-63
2023/12/18 03:48:19;;;;;;;65.25;24.55;;;26.40;2201.60;;;;;;5069730;28;20542;-63
2023/12/18 03:50:46;;;;;;;25.95;12.73;;;26.50;2201.60;;;;;;5088891;28;20036;-65
2023/12/18 03:53:12;;;;;;;11.75;7.25;;;26.50;2201.60;;;;;;5076080;28;20166;-63
2023/12/18 03:55:38;;;;;;;21.58;11.88;;;26.50;2201.60;;;;;;5081391;28;20586;-64
2023/12/18 03:58:05;;;;;;;22.83;12.40;;;26.50;2201.60;;;;;;5060087;28;20107;-63
2023/12/18 04:00:31;;;;;;;31.17;15.48;;;26.50;2201.60;;;;;;5077532;28;20486;-64
2023/12/18 04:02:56;;;;;;;42.97;19.83;;;26.20;2201.60;;;;;;5073723;28;20024;-64
2023/12/18 04:05:24;;;;;;;18.95;10.90;;;26.20;2201.60;;;;;;5077295;28;20083;-64
2023/12/18 04:07:50;;;;;;;15.63;8.57;;;26.20;2201.60;;;;;;5089151;28;20048;-64
2023/12/18 04:10:16;;;;;;;26.75;12.38;;;26.20;2201.60;;;;;;5080331;28;20070;-63
2023/12/18 04:12:42;;;;;;;55.03;25.88;;;26.30;2201.60;;;;;;5070916;28;20086;-63
2023/12/18 04:15:09;;;;;;;70.97;31.92;;;26.30;2201.60;;;;;;5080526;28;20032;-64
2023/12/18 04:17:35;;;;;;;35.90;18.48;;;26.40;2201.60;;;;;;5068758;28;20434;-63
2023/12/18 04:20:02;;;;;;;27.05;14.23;;;26.40;2201.60;;;;;;5068829;28;20056;-63
2023/12/18 04:22:27;;;;;;;14.35;9.77;;;26.50;2201.60;;;;;;5070558;28;20031;-63
2023/12/18 04:24:53;;;;;;;13.13;8.30;;;26.50;2201.60;;;;;;5080099;28;20029;-63
2023/12/18 04:27:19;;;;;;;18.02;11.35;;;26.50;2201.60;;;;;;5073863;28;20025;-63
2023/12/18 04:29:44;;;;;;;14.95;7.63;;;26.50;2201.60;;;;;;5073224;28;20032;-63
2023/12/18 04:32:10;;;;;;;17.85;9.10;;;26.50;2201.60;;;;;;5072259;28;20064;-65
2023/12/18 04:34:36;;;;;;;13.20;7.55;;;26.50;2201.60;;;;;;5072215;28;20029;-63
2023/12/18 04:37:02;;;;;;;13.80;7.38;;;26.40;2201.60;;;;;;5072551;28;20059;-64
2023/12/18 04:39:28;;;;;;;13.38;7.82;;;26.40;2201.60;;;;;;5081557;28;20418;-63
2023/12/18 04:41:53;;;;;;;14.35;8.88;;;26.40;2201.60;;;;;;5092819;28;20465;-63
2023/12/18 04:44:19;;;;;;;14.48;8.25;;;26.30;2201.60;;;;;;5083413;28;20039;-63
2023/12/18 04:46:46;;;;;;;19.08;12.45;;;26.20;2201.60;;;;;;5071358;28;20028;-64
2023/12/18 04:49:13;;;;;;;16.25;9.25;;;26.20;2201.60;;;;;;5071936;28;20491;-64
2023/12/18 04:51:38;;;;;;;18.75;10.88;;;26.00;2201.60;;;;;;5087571;28;20063;-63
2023/12/18 04:54:04;;;;;;;23.23;11.65;;;26.10;2201.60;;;;;;5083332;28;20110;-64
2023/12/18 04:56:30;;;;;;;24.52;12.75;;;26.10;2201.60;;;;;;5073867;28;20032;-64
2023/12/18 04:58:56;;;;;;;16.92;9.95;;;26.20;2201.60;;;;;;5082695;28;20029;-63
2023/12/18 05:01:21;;;;;;;15.05;7.75;;;26.30;2201.60;;;;;;5074812;28;20048;-64
2023/12/18 05:03:47;;;;;;;15.13;7.90;;;26.40;2201.60;;;;;;5083105;28;20045;-63
2023/12/18 05:06:23;;;;;;;16.05;8.70;;;26.50;2201.60;;;;;;5073319;28;20024;-64
2023/12/18 05:08:50;;;;;;;23.35;12.57;;;51.20;2227.20;;;;;;5081963;28;20068;-64
2023/12/18 05:11:20;;;;;;;14.15;10.48;;;26.50;2201.60;;;;;;5088272;28;20097;-64
2023/12/18 05:13:47;;;;;;;19.13;9.98;;;26.50;2201.60;;;;;;5080537;28;20037;-64
2023/12/18 05:16:16;;;;;;;15.07;7.45;;;26.50;2201.60;;;;;;5089114;28;20074;-64
2023/12/18 05:18:42;;;;;;;12.27;6.05;;;26.50;2201.60;;;;;;5080262;28;20112;-63
2023/12/18 05:21:10;;;;;;;11.93;6.55;;;26.50;2201.60;;;;;;5089862;28;20059;-64
2023/12/18 05:23:36;;;;;;;8.23;4.93;;;26.50;2201.60;;;;;;5079436;28;20470;-63
2023/12/18 05:26:02;;;;;;;12.57;6.85;;;26.40;2201.60;;;;;;5084633;28;20044;-64
2023/12/18 05:28:28;;;;;;;8.88;5.88;;;26.40;2201.60;;;;;;5083231;28;20028;-65
2023/12/18 05:30:54;;;;;;;10.00;4.95;;;26.40;2201.60;;;;;;5072898;28;20082;-64
2023/12/18 05:33:20;;;;;;;7.53;4.07;;;26.40;2201.60;;;;;;5065595;28;20029;-64
2023/12/18 05:35:46;;;;;;;4.88;3.90;;;26.30;2201.60;;;;;;5070507;28;20220;-64
2023/12/18 05:38:12;;;;;;;9.15;5.07;;;26.30;2201.60;;;;;;5082441;28;20027;-64
2023/12/18 05:40:38;;;;;;;13.65;7.50;;;26.30;2201.60;;;;;;5086090;28;20024;-62
2023/12/18 05:43:05;;;;;;;16.38;6.95;;;26.30;2201.60;;;;;;5071027;28;20078;-63
2023/12/18 05:45:32;;;;;;;20.45;11.55;;;26.20;2201.60;;;;;;5070718;28;20055;-64
2023/12/18 05:47:58;;;;;;;16.73;9.43;;;26.20;2201.60;;;;;;5071372;28;20029;-63
2023/12/18 05:50:24;;;;;;;44.60;22.83;;;26.20;2201.60;;;;;;5070887;28;20089;-64
2023/12/18 05:52:50;;;;;;;109.65;51.15;;;26.30;2201.60;;;;;;5083165;28;20107;-63
2023/12/18 05:55:16;;;;;;;132.52;63.33;;;26.20;2201.60;;;;;;5077450;28;20016;-63
2023/12/18 05:57:42;;;;;;;85.13;42.03;;;26.30;2201.60;;;;;;5079198;28;20479;-63
2023/12/18 06:00:09;;;;;;;77.25;42.55;;;26.30;2201.60;;;;;;5084356;28;20027;-63
2023/12/18 06:02:35;;;;;;;50.67;26.20;;;26.30;2201.60;;;;;;5070508;28;20026;-64
2023/12/18 06:05:02;;;;;;;73.40;31.48;;;26.30;2201.60;;;;;;5080510;28;20094;-63
2023/12/18 06:07:27;;;;;;;29.67;18.00;;;26.30;2201.60;;;;;;5072153;28;20377;-64
2023/12/18 06:09:53;;;;;;;62.28;29.92;;;26.40;2201.60;;;;;;5076438;28;20020;-63
2023/12/18 06:12:19;;;;;;;87.20;41.00;;;26.40;2201.60;;;;;;5078178;28;20040;-63
2023/12/18 06:14:44;;;;;;;38.47;23.10;;;26.50;2201.60;;;;;;5070417;28;20024;-63
2023/12/18 06:17:10;;;;;;;15.52;11.27;;;26.50;2201.60;;;;;;5083506;28;20036;-64
2023/12/18 06:19:37;;;;;;;12.52;6.85;;;26.40;2201.60;;;;;;5090037;28;20024;-64
2023/12/18 06:22:03;;;;;;;16.98;10.95;;;26.40;2201.60;;;;;;5078160;28;20024;-64
2023/12/18 06:24:29;;;;;;;17.73;9.48;;;26.40;2201.60;;;;;;5076830;28;20484;-63
2023/12/18 06:26:55;;;;;;;17.85;9.50;;;26.20;2201.60;;;;;;5077640;28;20032;-64
2023/12/18 06:29:22;;;;;;;18.42;9.77;;;26.20;2201.60;;;;;;5089383;28;20074;-64
2023/12/18 06:31:48;;;;;;;14.98;7.65;;;26.20;2201.60;;;;;;5090602;28;20036;-64
2023/12/18 06:34:14;;;;;;;12.80;7.82;;;26.40;2201.60;;;;;;5057576;28;20516;-63
2023/12/18 06:36:40;;;;;;;11.82;6.82;;;26.50;2201.60;;;;;;5070296;28;20099;-64
2023/12/18 06:39:05;;;;;;;13.88;8.27;;;51.20;2227.20;;;;;;5065505;28;20122;-64
2023/12/18 06:41:31;;;;;;;47.10;26.60;;;26.50;2201.60;;;;;;5062895;28;20055;-64
2023/12/18 06:43:57;;;;;;;91.72;52.10;;;51.20;2227.20;;;;;;5075712;28;20124;-65
2023/12/18 06:46:23;;;;;;;80.88;50.72;;;51.20;2227.20;;;;;;5077553;28;20040;-64
2023/12/18 06:48:49;;;;;;;101.82;57.35;;;51.30;2227.20;;;;;;5090029;28;20032;-64
2023/12/18 06:51:16;;;;;;;77.90;46.83;;;51.50;2227.20;;;;;;5076812;28;20136;-65
2023/12/18 06:53:41;;;;;;;80.35;48.08;;;51.50;2227.20;;;;;;5076040;28;20031;-63
2023/12/18 06:56:08;;;;;;;48.90;29.75;;;51.50;2227.20;;;;;;5089955;28;20028;-66
2023/12/18 06:58:34;;;;;;;44.63;25.20;;;51.60;2227.20;;;;;;5090151;28;20057;-64
2023/12/18 07:01:00;;;;;;;84.07;47.33;;;51.60;2227.20;;;;;;5089860;28;20024;-65
2023/12/18 07:03:26;;;;;;;121.72;72.88;;;51.70;2227.20;;;;;;5076536;28;20549;-65
2023/12/18 07:05:51;;;;;;;95.40;58.20;;;77.10;2227.20;;;;;;5063059;28;20067;-63
2023/12/18 07:08:17;;;;;;;55.58;34.63;;;51.80;2227.20;;;;;;5061454;28;20119;-64
2023/12/18 07:10:43;;;;;;;58.05;32.47;;;51.90;2227.20;;;;;;5049486;28;20044;-64
2023/12/18 07:13:09;;;;;;;30.50;16.95;;;51.90;2227.20;;;;;;5076575;28;20027;-64
2023/12/18 07:15:34;;;;;;;26.25;12.98;;;51.90;2227.20;;;;;;5090087;28;20043;-64
2023/12/18 07:18:01;;;;;;;19.73;10.45;;;51.70;2227.20;;;;;;5090162;28;20419;-65
2023/12/18 07:20:27;;;;;;;29.42;20.80;;;51.70;2227.20;;;;;;5088979;28;20016;-64
2023/12/18 07:22:52;;;;;;;23.60;15.50;;;51.80;2227.20;;;;;;5069459;28;20037;-65
2023/12/18 07:25:18;;;;;;;21.63;11.73;;;51.90;2227.20;;;;;;5082878;28;20021;-64
2023/12/18 07:27:45;;;;;;;20.08;11.43;;;51.90;2227.20;;;;;;5061800;28;20046;-65
2023/12/18 07:30:12;;;;;;;116.07;91.75;;;52.00;2227.20;;;;;;5088004;28;20055;-64
2023/12/18 07:32:38;;;;;;;31.05;26.10;;;52.10;2227.20;;;;;;5083724;28;20027;-63
2023/12/18 07:35:05;;;;;;;11.80;7.53;;;76.80;2227.20;;;;;;5081004;28;20389;-64
2023/12/18 07:37:31;;;;;;;9.98;5.75;;;76.80;2227.20;;;;;;5083392;28;20021;-65
2023/12/18 07:39:59;;;;;;;11.90;6.68;;;52.00;2227.20;;;;;;5058502;28;20138;-64
2023/12/18 07:42:25;;;;;;;16.23;8.98;;;52.10;2227.20;;;;;;5081699;28;20102;-65
2023/12/18 07:44:52;;;;;;;19.10;12.25;;;52.10;2227.20;;;;;;5069337;28;20532;-64
2023/12/18 07:47:18;;;;;;;60.45;34.13;;;52.10;2227.20;;;;;;5074687;28;20027;-64
2023/12/18 07:49:45;;;;;;;49.08;29.90;;;76.80;2227.20;;;;;;5088850;28;20020;-64
2023/12/18 07:52:11;;;;;;;42.30;25.48;;;76.80;2227.20;;;;;;5075391;28;20043;-63
2023/12/18 07:54:36;;;;;;;34.53;20.85;;;76.90;2227.20;;;;;;5089345;28;20473;-64
2023/12/18 07:57:02;;;;;;;26.80;16.27;;;77.00;2227.20;;;;;;5083305;28;20029;-63
2023/12/18 07:59:29;;;;;;;47.95;29.45;;;77.20;2227.20;;;;;;5069972;28;20021;-62
2023/12/18 08:01:55;;;;;;;34.67;20.63;;;77.20;2227.20;;;;;;5078426;28;20029;-65
2023/12/18 08:04:20;;;;;;;25.15;14.73;;;77.30;2227.20;;;;;;5086120;28;20043;-64
2023/12/18 08:06:47;;;;;;;24.58;16.63;;;77.40;2227.20;;;;;;5083208;28;20057;-64
2023/12/18 08:09:14;;;;;;;22.38;13.90;;;77.50;2227.20;;;;;;5074111;28;20036;-65
2023/12/18 08:11:39;;;;;;;33.33;20.90;;;77.60;2227.20;;;;;;5065022;28;20032;-64
2023/12/18 08:14:05;;;;;;;47.92;28.88;;;77.70;2227.20;;;;;;5087237;28;20527;-63
2023/12/18 08:16:31;;;;;;;35.88;24.98;;;102.40;2227.20;;;;;;5074584;28;20067;-64
2023/12/18 08:18:58;;;;;;;45.47;22.58;;;102.60;2227.20;;;;;;5081792;28;20023;-65
2023/12/18 08:21:28;;;;;;;78.20;42.90;;;102.80;2227.20;;;;;;5089962;28;20038;-64
2023/12/18 08:23:54;;;;;;;161.05;107.35;;;128.40;2252.80;;;;;;5086904;28;20016;-65
2023/12/18 08:26:19;;;;;;;246.50;166.77;;;128.60;2252.80;;;;;;5092896;28;20024;-64
2023/12/18 08:28:45;;;;;;;264.75;190.07;;;128.50;2252.80;;;;;;5092045;28;20385;-64
2023/12/18 08:31:12;;;;;;;234.88;169.27;;;128.40;2252.80;;;;;;5072591;28;20028;-64
2023/12/18 08:33:38;;;;;;;224.90;159.38;;;128.40;2252.80;;;;;;5072470;28;20428;-65
2023/12/18 08:36:05;;;;;;;210.00;148.10;;;128.40;2252.80;;;;;;5071943;28;20024;-64
2023/12/18 08:38:30;;;;;;;239.88;175.65;;;128.40;2252.80;;;;;;5085976;28;20482;-63
2023/12/18 08:40:56;;;;;;;226.23;167.82;;;154.10;2252.80;;;;;;5079842;28;20020;-65
2023/12/18 08:43:22;;;;;;;262.35;199.07;;;179.90;2252.80;;;;;;5076159;28;20029;-63
2023/12/18 08:45:48;;;;;;;183.52;137.75;;;230.70;2252.80;;;;;;5063782;28;20031;-62
2023/12/18 08:48:14;;;;;;;257.23;202.75;;;281.70;2201.60;;;;;;5086370;28;20028;-65
2023/12/18 08:50:39;;;;;;;307.63;252.63;;;308.00;2048.00;;;;;;5085272;28;20036;-63
2023/12/18 08:53:05;;;;;;;293.40;240.82;;;333.60;1971.20;;;;;;5075028;28;20104;-63
2023/12/18 08:55:31;;;;;;;263.23;227.48;;;359.10;1843.20;;;;;;5076782;28;20036;-63
2023/12/18 08:57:57;;;;;;;176.48;150.43;;;384.50;1766.40;;;;;;5089138;28;20024;-64
2023/12/18 09:00:25;;;;;;;298.20;234.05;;;409.70;1664.00;;;;;;5082772;28;20065;-64
2023/12/18 09:02:50;;;;;;;446.23;310.80;;;410.20;1638.40;;;;;;5073152;28;20107;-63
2023/12/18 09:05:16;;;;;;;443.95;322.85;;;384.60;1664.00;;;;;;5081184;28;20135;-64
2023/12/18 09:07:42;;;;;;;188.18;158.10;;;359.00;1740.80;;;;;;5078336;28;20028;-63
2023/12/18 09:10:08;;;;;;;213.70;187.60;;;333.60;1792.00;;;;;;5084347;28;20025;-64
2023/12/18 09:12:33;;;;;;;161.00;139.35;;;333.60;1766.40;;;;;;5070096;28;20482;-64
2023/12/18 09:14:59;;;;;;;181.25;160.35;;;358.50;1740.80;;;;;;5071893;28;20112;-63
2023/12/18 09:17:26;;;;;;;159.38;138.02;;;333.40;1792.00;;;;;;5072330;28;20073;-63
2023/12/18 09:19:51;;;;;;;110.35;89.72;;;333.50;1792.00;;;;;;5080854;28;20020;-62
2023/12/18 09:22:17;;;;;;;82.00;64.18;;;358.40;1740.80;;;;;;5085776;28;20029;-65
2023/12/18 09:24:43;;;;;;;96.30;75.00;;;333.10;1766.40;;;;;;5081131;28;20029;-63
2023/12/18 09:27:09;;;;;;;113.03;85.53;;;307.80;1792.00;;;;;;5075282;28;20386;-64
2023/12/18 09:29:35;;;;;;;95.25;65.90;;;307.80;1817.60;;;;;;5076028;28;20055;-63
2023/12/18 09:32:02;;;;;;;102.03;64.70;;;307.30;1817.60;;;;;;5076176;28;20087;-63
2023/12/18 09:34:28;;;;;;;174.55;125.82;;;282.00;1843.20;;;;;;5084228;28;20368;-63
2023/12/18 09:36:53;;;;;;;176.65;115.55;;;256.70;1894.40;;;;;;5085966;28;20032;-62
2023/12/18 09:39:20;;;;;;;129.30;95.18;;;256.20;1945.60;;;;;;5071957;28;20042;-62
2023/12/18 09:41:46;;;;;;;270.70;154.52;;;231.20;1996.80;;;;;;5090695;28;20024;-63
2023/12/18 09:44:12;;;;;;;282.65;164.85;;;230.60;2099.20;;;;;;5078696;28;20039;-62
2023/12/18 09:46:37;;;;;;;215.63;141.18;;;230.40;2150.40;;;;;;5071323;28;20067;-63
2023/12/18 09:49:03;;;;;;;172.63;124.13;;;205.60;2201.60;;;;;;5055302;28;20025;-63
2023/12/18 09:51:32;;;;;;;185.32;126.63;;;205.50;2227.20;;;;;;5070691;28;20035;-63
2023/12/18 09:53:59;;;;;;;181.77;132.32;;;205.30;2252.80;;;;;;5071607;28;20012;-63
2023/12/18 09:56:25;;;;;;;194.05;138.52;;;205.40;2252.80;;;;;;5057898;28;20035;-62
2023/12/18 09:58:54;;;;;;;193.88;135.75;;;205.40;2252.80;;;;;;5071589;28;20047;-62
2023/12/18 10:01:21;;;;;;;204.77;140.13;;;205.30;2227.20;;;;;;5065344;28;20170;-62
2023/12/18 10:03:46;;;;;;;164.07;125.05;;;205.20;2227.20;;;;;;5090762;28;20048;-64
2023/12/18 10:06:12;;;;;;;183.40;127.30;;;205.20;2227.20;;;;;;5077381;28;20029;-62
2023/12/18 10:08:39;;;;;;;199.90;142.63;;;205.20;2227.20;;;;;;5064728;28;20032;-62
2023/12/18 10:11:06;;;;;;;209.50;149.02;;;205.40;2227.20;;;;;;5077780;28;20482;-64
2023/12/18 10:13:34;;;;;;;200.80;143.73;;;205.40;2227.20;;;;;;5076855;28;20060;-63
2023/12/18 10:16:00;;;;;;;308.35;206.73;;;205.20;2252.80;;;;;;5057737;28;20036;-62
2023/12/18 10:18:26;;;;;;;211.15;144.70;;;205.30;2252.80;;;;;;5084185;28;20378;-64
2023/12/18 10:20:52;;;;;;;191.57;135.43;;;205.30;2252.80;;;;;;5062108;28;20024;-62
2023/12/18 10:23:18;;;;;;;186.13;118.78;;;205.30;2252.80;;;;;;5067592;28;20024;-63
2023/12/18 10:25:43;;;;;;;147.35;104.68;;;205.40;2252.80;;;;;;5057467;28;20363;-65
2023/12/18 10:28:09;;;;;;;134.02;96.60;;;205.40;2252.80;;;;;;5079930;28;20473;-63
2023/12/18 10:30:36;;;;;;;155.95;97.18;;;205.50;2252.80;;;;;;5074727;28;20040;-63
2023/12/18 10:33:06;;;;;;;170.60;101.72;;;205.50;2227.20;;;;;;5070695;28;20024;-63
2023/12/18 10:35:35;;;;;;;121.03;72.68;;;205.50;2227.20;;;;;;5070135;28;20028;-62
2023/12/18 10:38:02;;;;;;;193.77;109.63;;;205.60;2176.00;;;;;;5080591;28;20020;-62
2023/12/18 10:40:28;;;;;;;120.32;72.25;;;205.60;2150.40;;;;;;5073275;28;20145;-63
2023/12/18 10:43:27;;;;;;;137.82;86.18;;;205.70;2176.00;;;;;;5069639;28;20036;-63
2023/12/18 10:45:53;;;;;;;88.88;56.03;;;230.40;2176.00;;;;;;5069951;28;20490;-63
2023/12/18 10:48:19;;;;;;;124.43;76.88;;;230.40;2201.60;;;;;;5071108;28;20088;-63
2023/12/18 10:50:49;;;;;;;80.35;57.50;;;230.40;2201.60;;;;;;5082028;28;20048;-62
2023/12/18 10:53:18;;;;;;;60.03;42.38;;;230.50;2176.00;;;;;;5083202;28;20107;-63
2023/12/18 10:55:44;;;;;;;61.78;41.55;;;230.50;2150.40;;;;;;5076911;28;20098;-63
2023/12/18 10:58:11;;;;;;;58.95;39.33;;;230.50;2124.80;;;;;;5058121;28;20021;-63
2023/12/18 11:00:40;;;;;;;56.58;38.22;;;230.60;2150.40;;;;;;5070128;28;20398;-63
2023/12/18 11:03:06;;;;;;;55.50;34.42;;;230.60;2099.20;;;;;;5069665;28;20021;-62
2023/12/18 11:05:32;;;;;;;54.63;36.60;;;230.60;2073.60;;;;;;5079246;28;20119;-63
2023/12/18 11:07:58;;;;;;;57.95;34.95;;;230.70;2099.20;;;;;;5090010;28;20054;-63
2023/12/18 11:10:27;;;;;;;52.90;31.20;;;230.90;2073.60;;;;;;5089727;28;20028;-63
2023/12/18 11:13:00;;;;;;;53.28;34.80;;;231.00;2022.40;;;;;;5072033;28;20037;-63
2023/12/18 11:15:45;;;;;;;50.47;31.23;;;231.10;1996.80;;;;;;5081490;28;20063;-62
2023/12/18 11:18:16;;;;;;;41.75;22.77;;;231.10;1996.80;;;;;;5057405;28;20024;-62
2023/12/18 11:20:42;;;;;;;39.60;23.92;;;231.20;1971.20;;;;;;5082733;28;20385;-63
2023/12/18 11:23:11;;;;;;;51.95;28.70;;;231.20;2022.40;;;;;;5070054;28;20044;-62
2023/12/18 11:25:47;;;;;;;39.70;22.17;;;231.20;2022.40;;;;;;5069682;28;20056;-63
2023/12/18 11:28:14;;;;;;;42.72;27.40;;;231.30;1996.80;;;;;;5076558;28;20028;-62
2023/12/18 11:30:44;;;;;;;40.55;27.67;;;256.00;1996.80;;;;;;5070289;28;20055;-62
2023/12/18 11:33:11;;;;;;;40.33;24.33;;;256.00;1996.80;;;;;;5068526;28;20021;-62
2023/12/18 11:35:43;;;;;;;49.88;29.33;;;256.20;1996.80;;;;;;5070352;28;20035;-63
2023/12/18 11:38:13;;;;;;;58.55;39.15;;;256.20;1996.80;;;;;;5077573;28;20013;-62
2023/12/18 11:40:48;;;;;;;50.80;33.83;;;256.20;1996.80;;;;;;5087560;28;20020;-63
2023/12/18 11:43:32;;;;;;;61.28;35.95;;;256.30;1971.20;;;;;;5075770;28;20028;-63
2023/12/18 11:45:59;;;;;;;64.47;41.22;;;256.40;1945.60;;;;;;5066865;28;20108;-63
2023/12/18 11:48:25;;;;;;;48.05;33.13;;;256.40;1920.00;;;;;;5089097;28;20035;-63
2023/12/18 11:50:51;;;;;;;51.83;27.83;;;256.40;1894.40;;;;;;5079268;28;20029;-63
2023/12/18 11:53:31;;;;;;;69.75;44.78;;;256.40;1868.80;;;;;;5084493;28;20043;-62
2023/12/18 11:55:57;;;;;;;54.67;34.78;;;256.40;1868.80;;;;;;5089051;28;20035;-61
2023/12/18 11:58:26;;;;;;;63.70;43.65;;;256.40;1843.20;;;;;;5088933;28;20020;-63
2023/12/18 12:00:54;;;;;;;61.58;42.60;;;256.50;1920.00;;;;;;5075802;28;20021;-61